Time;durP1;ratioP1;P1;durP2;ratioP2;P2;SDS_P1;SDS_P2;PMS_P1;PMS_P2;Temp;Humidity;BMP_temperature;BMP_pressure;BME280_temperature;BME280_humidity;BME280_pressure;Samples;Min_cycle;Max_cycle;Signal;HPM_P1;HPM_P2
2022/01/06 00:01:59;;;;;;;3.40;2.80;;;5.50;52.80;;;;;;5089837;27;34265;-76
2022/01/06 00:04:25;;;;;;;4.03;2.55;;;5.50;52.90;;;;;;5124095;27;34411;-76
2022/01/06 00:06:51;;;;;;;3.20;2.55;;;5.50;52.90;;;;;;5089379;27;34536;-76
2022/01/06 00:09:18;;;;;;;4.32;2.63;;;5.60;52.90;;;;;;5123596;27;36062;-76
2022/01/06 00:11:45;;;;;;;3.88;3.10;;;5.60;52.80;;;;;;5123851;27;34083;-76
2022/01/06 00:14:23;;;;;;;5.38;3.08;;;5.60;52.80;;;;;;5122973;27;34035;-76
2022/01/06 00:17:16;;;;;;;2.72;2.50;;;5.70;53.00;;;;;;5123273;27;34354;-76
2022/01/06 00:24:57;;;;;;;4.25;2.90;;;5.70;52.90;;;;;;5124002;27;34344;-76
2022/01/06 00:27:42;;;;;;;4.50;3.20;;;5.60;52.80;;;;;;5123907;27;34193;-76
2022/01/06 00:30:08;;;;;;;4.88;2.65;;;5.70;52.90;;;;;;5121126;27;34472;-75
2022/01/06 00:32:35;;;;;;;4.72;2.70;;;5.70;52.80;;;;;;5105949;27;34379;-76
2022/01/06 00:35:01;;;;;;;4.72;2.88;;;5.70;52.80;;;;;;5105752;27;34096;-75
2022/01/06 00:37:27;;;;;;;4.05;2.95;;;5.70;52.90;;;;;;5089428;27;34231;-76
2022/01/06 00:39:53;;;;;;;3.97;3.00;;;5.80;52.70;;;;;;5106156;27;35647;-76
2022/01/06 00:42:19;;;;;;;3.30;2.67;;;5.80;52.70;;;;;;5106028;27;34402;-76
2022/01/06 00:44:46;;;;;;;4.70;2.70;;;5.80;52.90;;;;;;5089161;27;34482;-76
2022/01/06 00:47:12;;;;;;;4.32;2.75;;;5.80;52.60;;;;;;5089522;27;34581;-76
2022/01/06 00:49:38;;;;;;;2.92;2.58;;;5.80;52.70;;;;;;5105846;27;35775;-76
2022/01/06 00:52:04;;;;;;;5.88;3.00;;;5.80;52.70;;;;;;5089152;27;34184;-75
2022/01/06 00:54:32;;;;;;;5.10;2.88;;;5.80;52.80;;;;;;5106287;27;34187;-75
2022/01/06 00:56:58;;;;;;;4.00;2.90;;;5.80;52.80;;;;;;5106941;27;34361;-75
2022/01/06 00:59:24;;;;;;;4.18;2.78;;;5.80;52.80;;;;;;5105917;27;35945;-76
2022/01/06 01:01:50;;;;;;;3.47;2.20;;;5.70;52.80;;;;;;5088683;27;34220;-76
2022/01/06 01:04:16;;;;;;;3.33;2.45;;;5.70;52.80;;;;;;5088721;27;34238;-76
2022/01/06 01:06:42;;;;;;;2.55;1.85;;;5.70;52.80;;;;;;5106324;27;34299;-76
2022/01/06 01:09:08;;;;;;;6.55;2.20;;;5.60;52.80;;;;;;5105976;27;35587;-75
2022/01/06 01:11:34;;;;;;;4.88;2.00;;;5.60;52.80;;;;;;5124554;27;34408;-76
2022/01/06 01:14:16;;;;;;;2.50;2.28;;;5.50;52.90;;;;;;5105529;27;34224;-76
2022/01/06 01:16:52;;;;;;;3.30;2.25;;;5.50;53.00;;;;;;5105906;27;34211;-76
2022/01/06 01:19:19;;;;;;;2.15;1.88;;;5.50;53.00;;;;;;5123450;27;34311;-76
2022/01/06 01:21:45;;;;;;;2.90;1.65;;;5.50;53.10;;;;;;5088560;27;34214;-76
2022/01/06 01:24:11;;;;;;;1.70;1.60;;;5.50;53.10;;;;;;5105462;27;34045;-75
2022/01/06 01:26:37;;;;;;;3.33;1.75;;;5.40;53.00;;;;;;5105579;27;34409;-76
2022/01/06 01:29:04;;;;;;;2.17;1.60;;;5.40;53.00;;;;;;5094721;28;35509;-76
2022/01/06 01:31:36;;;;;;;3.83;1.50;;;5.40;53.10;;;;;;5085076;28;34210;-76
2022/01/06 01:34:08;;;;;;;2.38;1.55;;;5.30;53.10;;;;;;5086820;28;34158;-75
2022/01/06 01:36:35;;;;;;;1.33;1.23;;;5.30;53.10;;;;;;5069443;28;34238;-76
2022/01/06 01:39:02;;;;;;;2.05;1.25;;;5.30;53.10;;;;;;5084453;28;35676;-76
2022/01/06 01:41:28;;;;;;;2.35;1.50;;;5.30;53.00;;;;;;5086057;28;34253;-76
2022/01/06 01:43:55;;;;;;;4.53;1.38;;;5.30;52.90;;;;;;5084845;28;34133;-76
2022/01/06 01:46:28;;;;;;;2.90;1.20;;;5.30;53.00;;;;;;5085247;28;34204;-76
2022/01/06 01:51:37;;;;;;;2.60;1.13;;;5.20;52.80;;;;;;5084778;28;34225;-76
2022/01/06 01:54:03;;;;;;;2.65;1.10;;;5.20;52.80;;;;;;5084921;28;34580;-75
2022/01/06 01:56:30;;;;;;;1.55;1.10;;;5.20;52.80;;;;;;5085344;28;34423;-76
2022/01/06 01:58:56;;;;;;;8.38;1.58;;;5.10;52.80;;;;;;5084379;28;36567;-75
2022/01/06 02:01:22;;;;;;;1.10;1.00;;;5.00;52.60;;;;;;5085780;28;34446;-76
2022/01/06 02:03:49;;;;;;;0.80;0.80;;;5.00;52.80;;;;;;5085726;28;34114;-75
2022/01/06 02:06:15;;;;;;;1.25;1.10;;;4.80;52.80;;;;;;5085592;28;34106;-76
2022/01/06 02:08:41;;;;;;;1.75;1.02;;;4.80;52.80;;;;;;5084116;28;35810;-76
2022/01/06 02:11:07;;;;;;;3.70;0.93;;;4.70;52.80;;;;;;5084397;28;34159;-76
2022/01/06 02:13:43;;;;;;;1.50;1.00;;;4.60;52.80;;;;;;5067542;28;34198;-76
2022/01/06 02:16:09;;;;;;;1.33;1.05;;;4.50;52.80;;;;;;5084180;28;34070;-75
2022/01/06 02:18:36;;;;;;;3.17;0.90;;;4.40;52.80;;;;;;5067901;28;34253;-76
2022/01/06 02:21:02;;;;;;;3.08;0.98;;;4.30;52.90;;;;;;5084583;28;34102;-76
2022/01/06 02:23:28;;;;;;;1.48;0.82;;;4.20;52.90;;;;;;5101691;27;34360;-76
2022/01/06 02:25:54;;;;;;;5.55;0.93;;;4.10;53.20;;;;;;5067042;28;34413;-76
2022/01/06 02:28:22;;;;;;;3.55;0.90;;;4.10;53.30;;;;;;5084286;28;37054;-76
2022/01/06 02:30:51;;;;;;;2.05;0.90;;;4.10;53.40;;;;;;5085221;28;34316;-76
2022/01/06 02:33:18;;;;;;;2.58;1.30;;;4.00;53.20;;;;;;5084401;28;34219;-76
2022/01/06 02:35:47;;;;;;;1.90;0.88;;;4.00;53.20;;;;;;5084108;28;34547;-76
2022/01/06 02:38:13;;;;;;;1.85;1.05;;;3.90;53.20;;;;;;5083426;28;35751;-76
2022/01/06 02:40:39;;;;;;;4.90;1.02;;;3.80;53.20;;;;;;5084425;28;34472;-76
2022/01/06 02:43:07;;;;;;;2.05;0.80;;;3.80;53.30;;;;;;5101073;27;34841;-76
2022/01/06 02:45:35;;;;;;;2.33;1.00;;;3.80;53.40;;;;;;5085401;28;34135;-76
2022/01/06 02:48:08;;;;;;;4.18;0.90;;;3.70;53.40;;;;;;5083501;28;35723;-75
2022/01/06 02:50:37;;;;;;;2.28;1.13;;;3.70;53.40;;;;;;5083908;28;34302;-76
2022/01/06 02:53:05;;;;;;;1.25;0.90;;;3.70;53.50;;;;;;5083626;28;34470;-76
2022/01/06 02:55:32;;;;;;;2.58;0.98;;;3.70;53.70;;;;;;5084023;28;34405;-76
2022/01/06 02:57:58;;;;;;;3.38;1.30;;;3.70;53.70;;;;;;5083436;28;35625;-76
2022/01/06 03:00:24;;;;;;;2.38;1.00;;;3.60;53.60;;;;;;5085201;28;34202;-76
2022/01/06 03:02:50;;;;;;;3.75;1.08;;;3.60;53.50;;;;;;5083879;28;34207;-76
2022/01/06 03:05:17;;;;;;;2.58;1.30;;;3.60;53.40;;;;;;5084328;28;34173;-75
2022/01/06 03:07:44;;;;;;;1.63;0.98;;;3.50;53.50;;;;;;5084165;28;35487;-76
2022/01/06 03:10:14;;;;;;;1.25;1.02;;;3.60;53.60;;;;;;5100636;27;34109;-76
2022/01/06 03:12:41;;;;;;;1.63;1.10;;;3.50;53.60;;;;;;5067813;28;34241;-75
2022/01/06 03:15:10;;;;;;;1.20;1.00;;;3.50;54.20;;;;;;5082903;28;34527;-76
2022/01/06 03:17:37;;;;;;;1.65;1.30;;;3.50;53.80;;;;;;5083775;28;35555;-76
2022/01/06 03:20:06;;;;;;;3.08;1.20;;;3.50;53.90;;;;;;5083170;28;34215;-75
2022/01/06 03:22:32;;;;;;;4.25;1.10;;;3.60;54.00;;;;;;5083717;28;34275;-76
2022/01/06 03:24:58;;;;;;;1.92;1.10;;;3.60;54.20;;;;;;5083719;28;34313;-76
2022/01/06 03:27:24;;;;;;;3.17;1.15;;;3.60;54.10;;;;;;5083588;28;34340;-76
2022/01/06 03:29:50;;;;;;;2.45;1.30;;;3.60;54.20;;;;;;5065771;28;34342;-76
2022/01/06 03:32:19;;;;;;;1.73;1.10;;;3.70;54.30;;;;;;5083028;28;34191;-76
2022/01/06 03:34:46;;;;;;;1.50;1.10;;;3.70;54.20;;;;;;5066905;28;35005;-76
2022/01/06 03:37:13;;;;;;;1.65;1.17;;;3.70;54.10;;;;;;5083675;28;34119;-76
2022/01/06 03:39:42;;;;;;;3.30;1.10;;;3.70;54.00;;;;;;5100291;27;34149;-76
2022/01/06 03:42:09;;;;;;;2.95;1.27;;;3.70;54.00;;;;;;5084117;28;34399;-76
2022/01/06 03:44:36;;;;;;;2.58;1.42;;;3.70;54.00;;;;;;5083414;28;34187;-76
2022/01/06 03:47:02;;;;;;;1.88;1.08;;;3.70;54.10;;;;;;5083133;28;34920;-76
2022/01/06 03:49:29;;;;;;;3.13;1.20;;;3.60;54.10;;;;;;5082830;28;34148;-75
2022/01/06 03:51:55;;;;;;;1.98;1.10;;;3.70;54.20;;;;;;5065717;28;34216;-76
2022/01/06 03:54:21;;;;;;;2.10;1.30;;;3.70;54.30;;;;;;5082818;28;34331;-76
2022/01/06 03:56:48;;;;;;;1.92;1.10;;;3.70;54.40;;;;;;5082767;28;35677;-76
2022/01/06 03:59:16;;;;;;;1.83;1.10;;;3.80;54.30;;;;;;5066141;28;34272;-76
2022/01/06 04:01:43;;;;;;;2.42;1.38;;;3.80;54.10;;;;;;5083086;28;34408;-76
2022/01/06 04:04:10;;;;;;;1.92;1.00;;;3.70;54.00;;;;;;5083101;28;34644;-76
2022/01/06 04:06:36;;;;;;;1.73;1.10;;;3.70;53.90;;;;;;5082308;28;35591;-76
2022/01/06 04:09:03;;;;;;;5.05;1.50;;;3.70;53.90;;;;;;5082655;28;34309;-76
2022/01/06 04:11:30;;;;;;;0.85;0.85;;;3.70;53.90;;;;;;5099898;27;34194;-76
2022/01/06 04:13:56;;;;;;;2.30;0.90;;;3.60;53.90;;;;;;5082603;28;34121;-76
2022/01/06 04:16:24;;;;;;;1.30;1.13;;;3.60;53.90;;;;;;5082194;28;35579;-76
2022/01/06 04:18:50;;;;;;;2.00;1.02;;;3.50;54.00;;;;;;5100052;27;34129;-76
2022/01/06 04:21:17;;;;;;;2.72;1.10;;;3.50;53.90;;;;;;5082613;28;34172;-76
2022/01/06 04:23:47;;;;;;;4.20;1.35;;;3.50;53.90;;;;;;5082558;28;34104;-76
2022/01/06 04:26:14;;;;;;;1.75;1.30;;;3.40;53.90;;;;;;5082158;28;36065;-76
2022/01/06 04:28:40;;;;;;;2.15;1.13;;;3.40;53.90;;;;;;5082315;28;34416;-75
2022/01/06 04:31:07;;;;;;;4.18;1.33;;;3.40;54.20;;;;;;5083416;28;34178;-75
2022/01/06 04:33:33;;;;;;;4.45;1.23;;;3.40;54.20;;;;;;5082885;28;34143;-76
2022/01/06 04:36:00;;;;;;;1.67;1.58;;;3.30;54.40;;;;;;5098722;27;36452;-76
2022/01/06 04:38:27;;;;;;;2.67;1.27;;;3.40;54.40;;;;;;5082374;28;34298;-75
2022/01/06 04:40:53;;;;;;;2.28;1.10;;;3.40;54.40;;;;;;5081943;28;34167;-76
2022/01/06 04:43:20;;;;;;;3.47;1.60;;;3.40;54.50;;;;;;5082722;28;34494;-76
2022/01/06 04:45:46;;;;;;;2.05;1.20;;;3.40;54.60;;;;;;5083446;28;35243;-75
2022/01/06 04:48:12;;;;;;;1.80;1.33;;;3.40;54.60;;;;;;5081127;28;34369;-76
2022/01/06 04:50:38;;;;;;;2.58;1.33;;;3.50;54.80;;;;;;5068364;28;34290;-76
2022/01/06 04:53:04;;;;;;;3.40;1.50;;;3.50;54.80;;;;;;5063342;28;34230;-76
2022/01/06 04:55:30;;;;;;;6.18;1.30;;;3.50;54.80;;;;;;5062773;28;35881;-76
2022/01/06 04:57:56;;;;;;;3.72;1.90;;;3.50;54.70;;;;;;5062174;28;34423;-75
2022/01/06 05:00:23;;;;;;;3.28;1.38;;;3.60;54.60;;;;;;5045688;28;34294;-76
2022/01/06 05:02:49;;;;;;;2.30;1.40;;;3.60;54.50;;;;;;5064809;28;34438;-76
2022/01/06 05:05:15;;;;;;;3.67;1.30;;;3.50;54.40;;;;;;5065456;28;35874;-76
2022/01/06 05:07:42;;;;;;;3.42;1.45;;;3.50;54.50;;;;;;5065350;28;34026;-75
2022/01/06 05:10:09;;;;;;;2.55;1.48;;;3.50;54.60;;;;;;5065579;28;34143;-76
2022/01/06 05:12:44;;;;;;;6.43;1.67;;;3.50;54.60;;;;;;5066325;28;34108;-76
2022/01/06 05:15:11;;;;;;;2.67;1.40;;;3.60;54.60;;;;;;5048348;28;36558;-76
2022/01/06 05:17:38;;;;;;;1.67;1.40;;;3.50;54.70;;;;;;5082239;28;34159;-76
2022/01/06 05:20:05;;;;;;;1.48;1.20;;;3.50;54.70;;;;;;5066472;28;34337;-76
2022/01/06 05:22:32;;;;;;;2.97;1.38;;;3.50;54.70;;;;;;5065241;28;34289;-76
2022/01/06 05:24:59;;;;;;;3.13;1.92;;;3.50;54.80;;;;;;5064632;28;35833;-76
2022/01/06 05:27:25;;;;;;;3.90;1.70;;;3.50;54.80;;;;;;5065292;28;34068;-76
2022/01/06 05:29:52;;;;;;;1.95;1.30;;;3.50;54.90;;;;;;5064723;28;34247;-75
2022/01/06 05:32:19;;;;;;;2.60;1.52;;;3.50;54.90;;;;;;5065098;28;34152;-76
2022/01/06 05:34:45;;;;;;;3.35;1.77;;;3.50;54.90;;;;;;5064565;28;36666;-76
2022/01/06 05:37:11;;;;;;;2.08;1.70;;;3.60;54.90;;;;;;5066108;28;34290;-76
2022/01/06 05:39:37;;;;;;;5.88;1.77;;;3.60;54.80;;;;;;5065368;28;34315;-76
2022/01/06 05:42:03;;;;;;;3.58;1.30;;;3.60;54.70;;;;;;5065029;28;34149;-75
2022/01/06 05:44:33;;;;;;;4.38;1.65;;;3.60;54.70;;;;;;5064727;28;35719;-75
2022/01/06 05:46:59;;;;;;;2.25;1.50;;;3.60;54.70;;;;;;5064873;28;34213;-76
2022/01/06 05:49:25;;;;;;;3.30;1.55;;;3.60;54.70;;;;;;5081896;28;34078;-76
2022/01/06 05:51:51;;;;;;;6.70;1.55;;;3.70;54.90;;;;;;5047333;28;34476;-76
2022/01/06 05:54:17;;;;;;;2.80;1.60;;;3.70;54.90;;;;;;5063964;28;35712;-76
2022/01/06 05:56:45;;;;;;;1.45;1.35;;;3.70;55.00;;;;;;5065517;28;34162;-76
2022/01/06 05:59:11;;;;;;;6.97;1.38;;;3.70;55.00;;;;;;5064320;28;34251;-75
2022/01/06 06:01:37;;;;;;;2.78;1.52;;;3.70;55.00;;;;;;5064288;28;34319;-75
2022/01/06 06:04:03;;;;;;;5.72;1.55;;;3.70;55.00;;;;;;5065269;28;35157;-75
2022/01/06 06:06:30;;;;;;;2.50;1.60;;;3.80;55.00;;;;;;5047368;28;34291;-76
2022/01/06 06:08:56;;;;;;;3.88;1.60;;;3.80;55.10;;;;;;5080901;28;34260;-76
2022/01/06 06:11:22;;;;;;;1.58;1.35;;;3.80;55.20;;;;;;5064390;28;34495;-75
2022/01/06 06:13:48;;;;;;;4.65;2.03;;;3.80;55.20;;;;;;5063070;28;36016;-75
2022/01/06 06:16:14;;;;;;;3.10;1.52;;;3.80;55.20;;;;;;5064205;28;33725;-76
2022/01/06 06:18:40;;;;;;;1.85;1.55;;;3.90;55.30;;;;;;5064329;28;34191;-75
2022/01/06 06:21:07;;;;;;;4.13;1.60;;;3.90;55.20;;;;;;5063761;28;34146;-76
2022/01/06 06:23:34;;;;;;;2.80;1.60;;;3.90;55.20;;;;;;5064950;28;34766;-76
2022/01/06 06:26:00;;;;;;;3.33;1.92;;;3.90;55.10;;;;;;5063749;28;34238;-76
2022/01/06 06:28:26;;;;;;;2.05;1.42;;;4.00;55.00;;;;;;5063445;28;34401;-76
2022/01/06 06:30:52;;;;;;;4.40;1.40;;;3.90;55.00;;;;;;5063278;28;34365;-76
2022/01/06 06:33:18;;;;;;;5.60;1.40;;;3.90;55.00;;;;;;5064736;28;35488;-76
2022/01/06 06:35:44;;;;;;;4.35;1.83;;;3.90;55.00;;;;;;5064122;28;34200;-76
2022/01/06 06:38:10;;;;;;;3.35;1.13;;;3.80;54.90;;;;;;5063355;28;34136;-76
2022/01/06 06:40:36;;;;;;;5.60;1.65;;;3.80;54.90;;;;;;5063754;28;34097;-76
2022/01/06 06:43:02;;;;;;;5.15;1.40;;;3.70;54.90;;;;;;5062868;28;36363;-76
2022/01/06 06:45:29;;;;;;;1.73;1.38;;;3.70;54.80;;;;;;5080480;28;34220;-76
2022/01/06 06:47:55;;;;;;;2.40;1.70;;;3.60;54.80;;;;;;5063336;28;34353;-76
2022/01/06 06:50:21;;;;;;;3.25;1.45;;;3.50;54.90;;;;;;5063557;28;34131;-76
2022/01/06 06:52:48;;;;;;;3.63;1.50;;;3.50;55.10;;;;;;5063000;28;36465;-76
2022/01/06 06:55:14;;;;;;;2.38;1.67;;;3.40;55.20;;;;;;5064227;28;34220;-76
2022/01/06 06:57:41;;;;;;;2.50;1.40;;;3.40;55.10;;;;;;5063643;28;34220;-76
2022/01/06 07:00:09;;;;;;;1.77;1.40;;;3.30;54.90;;;;;;5063585;28;34337;-75
2022/01/06 07:02:35;;;;;;;4.57;1.50;;;3.20;55.00;;;;;;5063461;28;34214;-76
2022/01/06 07:05:01;;;;;;;3.10;1.52;;;3.20;54.90;;;;;;5063097;28;34064;-76
2022/01/06 07:07:28;;;;;;;2.72;1.20;;;3.20;55.00;;;;;;5063384;28;34202;-76
2022/01/06 07:09:54;;;;;;;1.92;1.45;;;3.10;54.80;;;;;;5063661;28;34077;-76
2022/01/06 07:12:20;;;;;;;3.42;1.60;;;3.00;54.80;;;;;;5063713;28;36657;-76
2022/01/06 07:14:46;;;;;;;4.22;1.40;;;2.90;54.80;;;;;;5064543;28;34830;-76
2022/01/06 07:17:12;;;;;;;1.55;1.15;;;2.80;54.80;;;;;;5079794;28;34406;-76
2022/01/06 07:19:38;;;;;;;1.85;1.40;;;2.80;55.00;;;;;;5062929;28;34129;-76
2022/01/06 07:22:05;;;;;;;4.15;1.20;;;2.80;55.20;;;;;;5062618;28;36330;-76
2022/01/06 07:24:32;;;;;;;4.95;1.58;;;2.70;55.10;;;;;;5062295;28;34246;-76
2022/01/06 07:26:58;;;;;;;2.83;1.40;;;2.60;54.80;;;;;;5079420;28;34159;-76
2022/01/06 07:29:24;;;;;;;3.08;1.17;;;2.60;54.70;;;;;;5062595;28;34378;-76
2022/01/06 07:31:50;;;;;;;3.90;1.33;;;2.50;54.70;;;;;;5062623;28;35452;-76
2022/01/06 07:34:16;;;;;;;3.78;1.52;;;2.40;54.60;;;;;;5079487;28;34246;-76
2022/01/06 07:36:42;;;;;;;3.60;1.40;;;2.40;54.80;;;;;;5064374;28;34310;-76
2022/01/06 07:39:08;;;;;;;3.47;1.83;;;2.30;54.80;;;;;;5045954;28;34665;-76
2022/01/06 07:41:35;;;;;;;4.93;1.60;;;2.30;54.90;;;;;;5062398;28;35987;-76
2022/01/06 07:44:19;;;;;;;4.88;1.90;;;2.20;54.80;;;;;;5062381;28;34087;-76
2022/01/06 07:46:47;;;;;;;3.70;1.60;;;2.20;55.00;;;;;;5062625;28;34166;-76
2022/01/06 07:49:13;;;;;;;2.92;1.33;;;2.10;55.20;;;;;;5063408;28;34162;-76
2022/01/06 07:51:40;;;;;;;4.22;1.85;;;2.10;55.50;;;;;;5063741;28;34452;-76
2022/01/06 07:54:06;;;;;;;6.57;1.63;;;2.10;55.50;;;;;;5062635;28;34276;-75
2022/01/06 07:56:33;;;;;;;1.35;1.25;;;2.10;55.50;;;;;;5062373;28;34425;-76
2022/01/06 07:58:59;;;;;;;5.18;2.03;;;2.10;55.50;;;;;;5062846;28;34374;-75
2022/01/06 08:01:26;;;;;;;4.50;1.58;;;2.10;55.50;;;;;;5063086;28;34231;-75
2022/01/06 08:03:52;;;;;;;3.83;1.75;;;2.10;55.60;;;;;;5062914;28;34287;-76
2022/01/06 08:06:19;;;;;;;1.70;1.58;;;2.10;55.50;;;;;;5064573;28;34251;-76
2022/01/06 08:08:46;;;;;;;10.00;2.00;;;2.10;55.30;;;;;;5080718;28;34199;-75
2022/01/06 08:11:13;;;;;;;4.55;1.58;;;2.10;55.40;;;;;;5063045;28;36570;-76
2022/01/06 08:13:40;;;;;;;3.90;1.73;;;2.20;55.30;;;;;;5064933;28;34097;-76
2022/01/06 08:16:06;;;;;;;7.43;1.60;;;2.10;55.40;;;;;;5062646;28;34392;-76
2022/01/06 08:18:32;;;;;;;2.33;1.60;;;2.20;55.30;;;;;;5062231;28;34209;-75
2022/01/06 08:20:58;;;;;;;4.10;1.73;;;2.20;55.20;;;;;;5062011;28;35772;-75
2022/01/06 08:23:25;;;;;;;3.55;1.98;;;2.20;55.20;;;;;;5063365;28;34244;-76
2022/01/06 08:25:51;;;;;;;3.65;1.90;;;2.30;55.30;;;;;;5063330;28;34339;-76
2022/01/06 08:28:17;;;;;;;5.22;2.20;;;2.30;55.20;;;;;;5069767;28;34199;-76
2022/01/06 08:30:43;;;;;;;1.95;1.73;;;2.30;55.10;;;;;;5085407;28;35952;-76
2022/01/06 08:33:10;;;;;;;2.28;1.77;;;2.30;55.10;;;;;;5068756;28;34170;-76
2022/01/06 08:35:36;;;;;;;2.45;1.50;;;2.40;55.20;;;;;;5085765;28;34171;-76
2022/01/06 08:38:02;;;;;;;3.40;1.50;;;2.40;55.20;;;;;;5068046;28;34078;-75
2022/01/06 08:40:28;;;;;;;5.68;2.15;;;2.40;55.10;;;;;;5085125;28;35570;-75
2022/01/06 08:42:54;;;;;;;3.90;2.00;;;2.50;55.20;;;;;;5068955;28;34177;-75
2022/01/06 08:45:21;;;;;;;4.75;2.53;;;2.60;55.10;;;;;;5085228;28;34474;-76
2022/01/06 08:47:52;;;;;;;4.05;1.98;;;2.60;55.00;;;;;;5103296;28;34332;-76
2022/01/06 08:50:19;;;;;;;4.05;2.55;;;2.60;54.90;;;;;;5085725;28;34947;-75
2022/01/06 08:52:46;;;;;;;2.42;2.20;;;2.60;55.00;;;;;;5085195;28;34341;-76
2022/01/06 08:55:12;;;;;;;6.00;2.10;;;2.60;55.10;;;;;;5101838;28;34296;-75
2022/01/06 08:57:38;;;;;;;2.72;1.83;;;2.60;55.10;;;;;;5068407;28;34204;-76
2022/01/06 09:00:07;;;;;;;3.50;2.22;;;2.70;55.20;;;;;;5085376;28;35836;-76
2022/01/06 09:02:33;;;;;;;4.25;1.65;;;2.80;55.10;;;;;;5085860;28;34217;-76
2022/01/06 09:05:02;;;;;;;5.57;2.08;;;2.90;55.20;;;;;;5085254;28;34179;-76
2022/01/06 09:07:28;;;;;;;8.23;2.58;;;2.90;55.10;;;;;;5103445;28;34000;-75
2022/01/06 09:09:54;;;;;;;4.85;2.05;;;3.00;55.10;;;;;;5092008;28;35661;-76
2022/01/06 09:12:21;;;;;;;7.60;2.55;;;3.10;55.10;;;;;;5088281;28;34367;-77
2022/01/06 09:14:47;;;;;;;8.60;2.58;;;3.20;55.10;;;;;;5105755;28;34222;-77
2022/01/06 09:17:15;;;;;;;6.97;3.00;;;3.30;55.10;;;;;;5086847;28;34500;-76
2022/01/06 09:19:41;;;;;;;4.50;2.35;;;3.40;55.10;;;;;;5103199;28;34378;-76
2022/01/06 09:22:07;;;;;;;6.35;3.05;;;3.50;55.20;;;;;;5084420;28;34155;-76
2022/01/06 09:24:35;;;;;;;6.25;2.40;;;3.70;55.30;;;;;;5083873;28;34169;-76
2022/01/06 09:27:01;;;;;;;9.35;2.63;;;3.80;55.20;;;;;;5067915;28;34227;-75
2022/01/06 09:29:27;;;;;;;3.45;2.35;;;3.90;55.00;;;;;;5102384;28;34472;-75
2022/01/06 09:31:53;;;;;;;5.22;2.45;;;3.90;54.80;;;;;;5084665;28;34128;-76
2022/01/06 09:34:19;;;;;;;7.10;2.75;;;4.00;54.70;;;;;;5102715;28;34153;-75
2022/01/06 09:36:46;;;;;;;3.97;2.10;;;4.00;54.70;;;;;;5101619;27;34503;-75
2022/01/06 09:39:13;;;;;;;2.78;2.22;;;4.00;54.70;;;;;;5101173;27;35490;-76
2022/01/06 09:41:39;;;;;;;5.97;2.35;;;4.10;54.80;;;;;;5068171;28;34413;-75
2022/01/06 09:44:06;;;;;;;4.28;2.70;;;4.10;54.80;;;;;;5102591;28;34472;-76
2022/01/06 09:46:33;;;;;;;6.28;2.17;;;4.10;54.80;;;;;;5084736;28;34291;-76
2022/01/06 09:49:00;;;;;;;3.78;2.22;;;4.10;54.80;;;;;;5086304;28;35837;-76
2022/01/06 09:51:29;;;;;;;4.70;2.35;;;4.10;54.80;;;;;;5089464;28;34351;-76
2022/01/06 09:53:59;;;;;;;5.88;2.72;;;4.20;55.00;;;;;;5089638;28;34037;-76
2022/01/06 09:56:27;;;;;;;2.78;2.10;;;4.30;55.10;;;;;;5071317;28;34297;-76
2022/01/06 09:58:54;;;;;;;4.28;1.92;;;4.50;55.10;;;;;;5088036;28;34879;-76
2022/01/06 10:01:20;;;;;;;3.70;2.53;;;4.60;54.90;;;;;;5088366;28;34441;-75
2022/01/06 10:03:48;;;;;;;7.93;2.95;;;4.70;54.80;;;;;;5105727;27;34419;-76
2022/01/06 10:06:19;;;;;;;8.80;2.80;;;4.80;54.70;;;;;;5071591;28;34538;-75
2022/01/06 10:09:04;;;;;;;2.20;1.95;;;4.80;54.60;;;;;;5104358;28;36559;-76
2022/01/06 10:11:34;;;;;;;9.77;2.55;;;4.90;54.80;;;;;;5087668;28;34294;-75
2022/01/06 10:14:08;;;;;;;3.97;1.73;;;4.90;54.70;;;;;;5105865;28;34238;-76
2022/01/06 10:16:38;;;;;;;5.13;2.17;;;5.00;54.70;;;;;;5071938;28;34595;-76
2022/01/06 10:19:10;;;;;;;6.25;2.25;;;5.00;54.80;;;;;;5087668;28;36532;-75
2022/01/06 10:21:39;;;;;;;5.13;2.75;;;5.10;55.10;;;;;;5088248;28;34208;-76
2022/01/06 10:24:09;;;;;;;6.32;2.80;;;5.40;55.10;;;;;;5105104;27;34179;-76
2022/01/06 10:26:36;;;;;;;4.25;2.92;;;5.60;54.60;;;;;;5071202;28;34464;-76
2022/01/06 10:29:06;;;;;;;7.28;2.60;;;5.70;54.40;;;;;;5104175;27;35670;-76
2022/01/06 10:31:33;;;;;;;5.22;2.22;;;5.90;54.40;;;;;;5087521;28;34084;-76
2022/01/06 10:34:05;;;;;;;6.07;2.70;;;5.90;54.30;;;;;;5106056;28;34248;-76
2022/01/06 10:36:36;;;;;;;6.25;2.38;;;5.90;54.80;;;;;;5087927;28;34054;-76
2022/01/06 10:39:06;;;;;;;4.10;2.53;;;5.90;54.30;;;;;;5087159;28;35676;-76
2022/01/06 10:41:33;;;;;;;11.02;2.90;;;5.90;54.40;;;;;;5071430;28;34200;-76
2022/01/06 10:44:01;;;;;;;7.93;3.15;;;6.00;54.40;;;;;;5104954;27;34236;-76
2022/01/06 10:46:31;;;;;;;3.88;2.13;;;6.10;54.50;;;;;;5071032;28;34171;-76
2022/01/06 10:48:58;;;;;;;4.90;2.53;;;6.20;54.50;;;;;;5086154;28;35839;-76
2022/01/06 10:51:36;;;;;;;11.63;3.33;;;6.20;54.20;;;;;;5105584;28;34056;-76
2022/01/06 10:54:04;;;;;;;9.63;2.50;;;6.20;53.60;;;;;;5086749;28;34347;-76
2022/01/06 10:56:30;;;;;;;3.75;2.22;;;6.20;53.60;;;;;;5105644;27;34310;-76
2022/01/06 10:58:58;;;;;;;6.38;3.00;;;6.30;53.90;;;;;;5086952;27;36717;-76
2022/01/06 11:01:25;;;;;;;9.98;2.25;;;6.30;54.00;;;;;;5087710;28;34254;-76
2022/01/06 11:03:51;;;;;;;4.60;2.83;;;6.40;54.30;;;;;;5087065;28;34246;-76
2022/01/06 11:06:17;;;;;;;5.32;2.47;;;6.40;53.90;;;;;;5087409;28;34420;-76
2022/01/06 11:08:44;;;;;;;6.47;3.08;;;6.50;54.20;;;;;;5087504;28;34226;-76
2022/01/06 11:11:28;;;;;;;3.78;2.53;;;6.70;54.10;;;;;;5070146;28;34128;-76
2022/01/06 11:13:54;;;;;;;4.35;2.72;;;6.70;53.60;;;;;;5072483;27;34208;-76
2022/01/06 11:16:20;;;;;;;8.15;3.28;;;6.80;53.30;;;;;;5087588;28;34504;-76
2022/01/06 11:19:03;;;;;;;5.30;2.55;;;6.80;53.20;;;;;;5086844;28;35981;-76
2022/01/06 11:21:40;;;;;;;4.70;2.60;;;6.90;52.60;;;;;;5087391;28;34363;-76
2022/01/06 11:24:14;;;;;;;4.30;2.10;;;7.00;52.70;;;;;;5104611;27;34322;-76
2022/01/06 11:26:43;;;;;;;7.90;2.55;;;7.20;52.90;;;;;;5104535;27;34098;-76
2022/01/06 11:29:11;;;;;;;6.25;2.22;;;7.50;53.60;;;;;;5072957;28;35715;-76
2022/01/06 11:31:41;;;;;;;6.90;2.75;;;7.80;52.40;;;;;;5063730;28;34220;-77
2022/01/06 11:34:17;;;;;;;8.75;2.85;;;8.00;52.10;;;;;;5063712;28;34115;-76
2022/01/06 11:36:46;;;;;;;5.85;2.40;;;8.30;50.80;;;;;;5063620;28;34145;-77
2022/01/06 11:39:30;;;;;;;7.80;2.42;;;8.40;51.00;;;;;;5063245;28;36313;-76
2022/01/06 11:41:58;;;;;;;6.68;2.30;;;8.50;48.90;;;;;;5063279;28;34386;-76
2022/01/06 11:44:29;;;;;;;4.30;2.55;;;8.60;50.50;;;;;;5063506;28;34334;-77
2022/01/06 11:46:59;;;;;;;7.60;2.67;;;8.60;50.40;;;;;;5063106;28;34704;-76
2022/01/06 11:49:35;;;;;;;8.80;2.55;;;8.70;50.70;;;;;;5062928;28;35861;-76
2022/01/06 11:52:05;;;;;;;6.68;2.15;;;8.70;48.90;;;;;;5062858;28;34189;-76
2022/01/06 11:54:31;;;;;;;6.70;2.40;;;8.70;50.40;;;;;;5063354;28;34360;-77
2022/01/06 11:56:57;;;;;;;3.78;2.00;;;8.80;50.70;;;;;;5079555;28;34260;-76
2022/01/06 11:59:32;;;;;;;5.43;2.15;;;9.00;50.50;;;;;;5062856;28;35516;-76
2022/01/06 12:01:59;;;;;;;7.38;2.85;;;9.10;49.70;;;;;;5063413;28;34181;-76
2022/01/06 12:04:26;;;;;;;4.93;2.22;;;9.10;50.10;;;;;;5080161;28;34287;-77
2022/01/06 12:07:04;;;;;;;3.00;2.20;;;9.00;49.40;;;;;;5064414;28;34185;-76
2022/01/06 12:09:31;;;;;;;5.88;2.08;;;9.00;48.60;;;;;;5062367;28;36526;-76
2022/01/06 12:12:01;;;;;;;5.72;2.30;;;9.00;49.40;;;;;;5061712;28;34154;-76
2022/01/06 12:14:28;;;;;;;8.27;2.35;;;9.10;49.60;;;;;;5063294;28;34149;-77
2022/01/06 12:17:03;;;;;;;6.00;1.92;;;9.10;49.70;;;;;;5062731;28;34314;-76
2022/01/06 12:19:29;;;;;;;5.72;2.00;;;9.20;48.30;;;;;;5063089;28;36287;-76
2022/01/06 12:21:55;;;;;;;7.07;1.73;;;9.30;49.20;;;;;;5062660;28;34216;-76
2022/01/06 12:24:21;;;;;;;6.97;1.73;;;9.30;48.90;;;;;;5063657;28;34240;-76
2022/01/06 12:26:47;;;;;;;4.95;1.73;;;9.40;48.80;;;;;;5062084;28;34223;-76
2022/01/06 12:29:19;;;;;;;4.45;1.92;;;9.40;48.70;;;;;;5078058;28;34232;-76
2022/01/06 12:31:45;;;;;;;4.10;1.70;;;9.50;48.60;;;;;;5062679;28;34250;-76
2022/01/06 12:34:13;;;;;;;7.60;1.67;;;9.50;48.60;;;;;;5062163;28;34216;-76
2022/01/06 12:36:43;;;;;;;5.18;1.85;;;9.50;48.70;;;;;;5061738;28;34449;-76
2022/01/06 12:39:15;;;;;;;4.70;1.70;;;9.40;48.30;;;;;;5061319;28;35717;-77
2022/01/06 12:41:42;;;;;;;4.13;1.63;;;9.40;48.20;;;;;;5062365;28;34227;-76
2022/01/06 12:44:09;;;;;;;4.55;2.08;;;9.20;48.20;;;;;;5061714;28;34564;-76
2022/01/06 12:46:37;;;;;;;4.93;1.83;;;9.20;48.20;;;;;;5061988;28;34129;-76
2022/01/06 12:49:07;;;;;;;6.95;1.80;;;9.10;48.30;;;;;;5062641;28;35803;-76
2022/01/06 12:51:37;;;;;;;4.22;1.55;;;9.10;48.30;;;;;;5062445;28;34009;-76
2022/01/06 12:54:13;;;;;;;3.65;1.83;;;9.10;47.70;;;;;;5061805;28;34284;-77
2022/01/06 12:56:45;;;;;;;4.53;1.73;;;9.00;46.80;;;;;;5077071;28;34283;-77
2022/01/06 12:59:14;;;;;;;3.08;1.42;;;8.90;47.40;;;;;;5061271;28;35532;-77
2022/01/06 13:01:41;;;;;;;4.82;1.58;;;8.80;48.30;;;;;;5063057;28;34019;-76
2022/01/06 13:04:10;;;;;;;5.75;1.80;;;8.80;48.40;;;;;;5061588;28;34433;-76
2022/01/06 13:06:38;;;;;;;8.65;1.83;;;8.70;48.00;;;;;;5061694;28;34388;-76
2022/01/06 13:09:20;;;;;;;5.97;1.63;;;8.70;48.50;;;;;;5060877;28;35584;-77